Manitowoc, Wisconsin
Current Conditions -  °F | °C
As of 10:56 AM on Friday 24 Oct 2014 (Local Time) from KMTW Reporting Station
Overcast Overcast  
Wind Chill: 51°   Ceiling: 700
Heat Index: 51°   Visibility: 10mi
Dew Point: 48°   Wind: 8mph
Humidity: 89%   Direction: 230°SW
Pressure: 30.02"   Gusts: NA
Location:  44.11°N, 87.66°W
Report Text: KMTW 241556Z AUTO 23007KT 10SM OVC007 11/09 A3002 RMK AO2 SLP193 T01060089
Loading
Personal Weather Stations






























Interactive Weather Map New forecast layout! Learn more

10-Day Weather Forecast

Advertisements
Track Severe Weather on mobile